sensor_id;sensor_type;location;lat;lon;timestamp;P1;durP1;ratioP1;P2;durP2;ratioP2
27802;SDS011;15182;48.174;11.562;2022-07-06T00:01:10;1.83;;;1.80;;
27802;SDS011;15182;48.174;11.562;2022-07-06T00:03:39;2.05;;;1.90;;
27802;SDS011;15182;48.174;11.562;2022-07-06T00:06:07;1.98;;;1.88;;
27802;SDS011;15182;48.174;11.562;2022-07-06T00:08:35;2.03;;;2.00;;
27802;SDS011;15182;48.174;11.562;2022-07-06T00:11:03;1.45;;;1.42;;
27802;SDS011;15182;48.174;11.562;2022-07-06T00:13:32;1.80;;;1.80;;
27802;SDS011;15182;48.174;11.562;2022-07-06T00:16:00;1.92;;;1.88;;
27802;SDS011;15182;48.174;11.562;2022-07-06T00:18:28;4.43;;;1.95;;
27802;SDS011;15182;48.174;11.562;2022-07-06T00:20:57;1.80;;;1.80;;
27802;SDS011;15182;48.174;11.562;2022-07-06T00:23:25;1.83;;;1.83;;
27802;SDS011;15182;48.174;11.562;2022-07-06T00:25:53;1.75;;;1.75;;
27802;SDS011;15182;48.174;11.562;2022-07-06T00:28:21;1.83;;;1.83;;
27802;SDS011;15182;48.174;11.562;2022-07-06T00:30:49;2.05;;;1.88;;
27802;SDS011;15182;48.174;11.562;2022-07-06T00:33:17;1.90;;;1.80;;
27802;SDS011;15182;48.174;11.562;2022-07-06T00:35:46;1.80;;;1.50;;
27802;SDS011;15182;48.174;11.562;2022-07-06T00:38:15;2.58;;;2.00;;
27802;SDS011;15182;48.174;11.562;2022-07-06T00:40:43;1.83;;;1.83;;
27802;SDS011;15182;48.174;11.562;2022-07-06T00:43:11;1.85;;;1.58;;
27802;SDS011;15182;48.174;11.562;2022-07-06T00:45:39;1.80;;;1.80;;
27802;SDS011;15182;48.174;11.562;2022-07-06T00:48:07;1.98;;;1.88;;
27802;SDS011;15182;48.174;11.562;2022-07-06T00:50:34;1.65;;;1.55;;
27802;SDS011;15182;48.174;11.562;2022-07-06T00:53:03;1.85;;;1.75;;
27802;SDS011;15182;48.174;11.562;2022-07-06T00:55:35;1.67;;;1.67;;
27802;SDS011;15182;48.174;11.562;2022-07-06T00:58:06;1.80;;;1.80;;
27802;SDS011;15182;48.174;11.562;2022-07-06T01:00:35;1.90;;;1.80;;
27802;SDS011;15182;48.174;11.562;2022-07-06T01:03:04;1.70;;;1.70;;
27802;SDS011;15182;48.174;11.562;2022-07-06T01:05:31;1.77;;;1.67;;
27802;SDS011;15182;48.174;11.562;2022-07-06T01:07:59;5.85;;;1.73;;
27802;SDS011;15182;48.174;11.562;2022-07-06T01:10:27;1.63;;;1.63;;
27802;SDS011;15182;48.174;11.562;2022-07-06T01:12:56;1.63;;;1.60;;
27802;SDS011;15182;48.174;11.562;2022-07-06T01:15:25;1.60;;;1.60;;
27802;SDS011;15182;48.174;11.562;2022-07-06T01:17:54;1.77;;;1.77;;
27802;SDS011;15182;48.174;11.562;2022-07-06T01:20:29;1.70;;;1.70;;
27802;SDS011;15182;48.174;11.562;2022-07-06T01:22:58;1.50;;;1.50;;
27802;SDS011;15182;48.174;11.562;2022-07-06T01:25:26;1.50;;;1.50;;
27802;SDS011;15182;48.174;11.562;2022-07-06T01:27:54;1.70;;;1.70;;
27802;SDS011;15182;48.174;11.562;2022-07-06T01:30:22;1.55;;;1.50;;
27802;SDS011;15182;48.174;11.562;2022-07-06T01:32:50;1.40;;;1.40;;
27802;SDS011;15182;48.174;11.562;2022-07-06T01:35:18;1.70;;;1.60;;
27802;SDS011;15182;48.174;11.562;2022-07-06T01:37:47;1.73;;;1.67;;
27802;SDS011;15182;48.174;11.562;2022-07-06T01:40:15;1.67;;;1.60;;
27802;SDS011;15182;48.174;11.562;2022-07-06T01:42:43;1.70;;;1.70;;
27802;SDS011;15182;48.174;11.562;2022-07-06T01:45:12;1.58;;;1.58;;
27802;SDS011;15182;48.174;11.562;2022-07-06T01:47:41;1.50;;;1.50;;
27802;SDS011;15182;48.174;11.562;2022-07-06T01:50:10;1.75;;;1.75;;
27802;SDS011;15182;48.174;11.562;2022-07-06T01:52:45;1.98;;;1.88;;
27802;SDS011;15182;48.174;11.562;2022-07-06T01:55:17;1.60;;;1.60;;
27802;SDS011;15182;48.174;11.562;2022-07-06T01:57:48;1.60;;;1.60;;
27802;SDS011;15182;48.174;11.562;2022-07-06T02:00:19;1.45;;;1.45;;
27802;SDS011;15182;48.174;11.562;2022-07-06T02:02:51;1.70;;;1.70;;
27802;SDS011;15182;48.174;11.562;2022-07-06T02:05:22;1.70;;;1.70;;
27802;SDS011;15182;48.174;11.562;2022-07-06T02:07:55;3.42;;;1.67;;
27802;SDS011;15182;48.174;11.562;2022-07-06T02:10:27;1.35;;;1.35;;
27802;SDS011;15182;48.174;11.562;2022-07-06T02:12:58;1.50;;;1.48;;
27802;SDS011;15182;48.174;11.562;2022-07-06T02:15:31;1.50;;;1.50;;
27802;SDS011;15182;48.174;11.562;2022-07-06T02:18:02;1.67;;;1.50;;
27802;SDS011;15182;48.174;11.562;2022-07-06T02:20:34;1.50;;;1.50;;
27802;SDS011;15182;48.174;11.562;2022-07-06T02:23:07;1.77;;;1.75;;
27802;SDS011;15182;48.174;11.562;2022-07-06T02:25:39;1.67;;;1.58;;
27802;SDS011;15182;48.174;11.562;2022-07-06T02:28:11;1.42;;;1.33;;
27802;SDS011;15182;48.174;11.562;2022-07-06T02:30:42;1.40;;;1.40;;
27802;SDS011;15182;48.174;11.562;2022-07-06T02:33:13;1.70;;;1.70;;
27802;SDS011;15182;48.174;11.562;2022-07-06T02:35:45;3.17;;;1.40;;
27802;SDS011;15182;48.174;11.562;2022-07-06T02:38:18;1.40;;;1.40;;
27802;SDS011;15182;48.174;11.562;2022-07-06T02:40:50;1.42;;;1.42;;
27802;SDS011;15182;48.174;11.562;2022-07-06T02:43:22;1.60;;;1.50;;
27802;SDS011;15182;48.174;11.562;2022-07-06T02:45:53;1.50;;;1.38;;
27802;SDS011;15182;48.174;11.562;2022-07-06T02:48:25;1.50;;;1.45;;
27802;SDS011;15182;48.174;11.562;2022-07-06T02:50:57;1.58;;;1.58;;
27802;SDS011;15182;48.174;11.562;2022-07-06T02:53:30;1.45;;;1.45;;
27802;SDS011;15182;48.174;11.562;2022-07-06T02:56:02;1.70;;;1.70;;
27802;SDS011;15182;48.174;11.562;2022-07-06T02:58:35;1.40;;;1.40;;
27802;SDS011;15182;48.174;11.562;2022-07-06T03:01:07;1.30;;;1.30;;
27802;SDS011;15182;48.174;11.562;2022-07-06T03:03:38;2.88;;;1.50;;
27802;SDS011;15182;48.174;11.562;2022-07-06T03:06:10;1.40;;;1.40;;
27802;SDS011;15182;48.174;11.562;2022-07-06T03:08:42;1.60;;;1.40;;
27802;SDS011;15182;48.174;11.562;2022-07-06T03:11:14;1.38;;;1.38;;
27802;SDS011;15182;48.174;11.562;2022-07-06T03:13:46;1.35;;;1.35;;
27802;SDS011;15182;48.174;11.562;2022-07-06T03:16:17;1.30;;;1.30;;
27802;SDS011;15182;48.174;11.562;2022-07-06T03:18:49;1.48;;;1.40;;
27802;SDS011;15182;48.174;11.562;2022-07-06T03:21:20;1.60;;;1.60;;
27802;SDS011;15182;48.174;11.562;2022-07-06T03:23:53;1.60;;;1.50;;
27802;SDS011;15182;48.174;11.562;2022-07-06T03:26:25;1.50;;;1.50;;
27802;SDS011;15182;48.174;11.562;2022-07-06T03:28:57;2.15;;;1.52;;
27802;SDS011;15182;48.174;11.562;2022-07-06T03:31:28;1.48;;;1.48;;
27802;SDS011;15182;48.174;11.562;2022-07-06T03:34:01;1.35;;;1.35;;
27802;SDS011;15182;48.174;11.562;2022-07-06T03:36:33;1.45;;;1.45;;
27802;SDS011;15182;48.174;11.562;2022-07-06T03:39:05;1.40;;;1.40;;
27802;SDS011;15182;48.174;11.562;2022-07-06T03:41:38;1.55;;;1.48;;
27802;SDS011;15182;48.174;11.562;2022-07-06T03:44:09;1.60;;;1.60;;
27802;SDS011;15182;48.174;11.562;2022-07-06T03:46:41;1.60;;;1.60;;
27802;SDS011;15182;48.174;11.562;2022-07-06T03:49:13;1.85;;;1.70;;
27802;SDS011;15182;48.174;11.562;2022-07-06T03:51:44;1.80;;;1.80;;
27802;SDS011;15182;48.174;11.562;2022-07-06T03:54:17;1.40;;;1.40;;
27802;SDS011;15182;48.174;11.562;2022-07-06T03:56:49;1.80;;;1.80;;
27802;SDS011;15182;48.174;11.562;2022-07-06T03:59:21;1.70;;;1.60;;
27802;SDS011;15182;48.174;11.562;2022-07-06T04:01:53;1.60;;;1.60;;
27802;SDS011;15182;48.174;11.562;2022-07-06T04:04:24;1.48;;;1.48;;
27802;SDS011;15182;48.174;11.562;2022-07-06T04:06:56;1.60;;;1.60;;
27802;SDS011;15182;48.174;11.562;2022-07-06T04:09:29;1.40;;;1.40;;
27802;SDS011;15182;48.174;11.562;2022-07-06T04:12:01;1.50;;;1.50;;
27802;SDS011;15182;48.174;11.562;2022-07-06T04:14:32;1.90;;;1.65;;
27802;SDS011;15182;48.174;11.562;2022-07-06T04:17:04;1.80;;;1.77;;
27802;SDS011;15182;48.174;11.562;2022-07-06T04:19:50;1.50;;;1.50;;
27802;SDS011;15182;48.174;11.562;2022-07-06T04:22:21;1.65;;;1.65;;
27802;SDS011;15182;48.174;11.562;2022-07-06T04:24:54;2.00;;;1.45;;
27802;SDS011;15182;48.174;11.562;2022-07-06T04:27:26;1.60;;;1.60;;
27802;SDS011;15182;48.174;11.562;2022-07-06T04:29:57;1.92;;;1.83;;
27802;SDS011;15182;48.174;11.562;2022-07-06T04:32:29;1.45;;;1.35;;
27802;SDS011;15182;48.174;11.562;2022-07-06T04:35:01;1.50;;;1.50;;
27802;SDS011;15182;48.174;11.562;2022-07-06T04:37:34;1.70;;;1.70;;
27802;SDS011;15182;48.174;11.562;2022-07-06T04:40:08;1.67;;;1.67;;
27802;SDS011;15182;48.174;11.562;2022-07-06T04:42:40;1.70;;;1.60;;
27802;SDS011;15182;48.174;11.562;2022-07-06T04:45:13;1.45;;;1.45;;
27802;SDS011;15182;48.174;11.562;2022-07-06T04:47:44;1.63;;;1.63;;
27802;SDS011;15182;48.174;11.562;2022-07-06T04:50:17;1.90;;;1.83;;
27802;SDS011;15182;48.174;11.562;2022-07-06T04:52:49;1.60;;;1.60;;
27802;SDS011;15182;48.174;11.562;2022-07-06T04:55:22;1.70;;;1.70;;
27802;SDS011;15182;48.174;11.562;2022-07-06T04:57:54;1.95;;;1.50;;
27802;SDS011;15182;48.174;11.562;2022-07-06T05:00:26;2.78;;;1.60;;
27802;SDS011;15182;48.174;11.562;2022-07-06T05:02:58;1.77;;;1.60;;
27802;SDS011;15182;48.174;11.562;2022-07-06T05:05:29;1.75;;;1.60;;
27802;SDS011;15182;48.174;11.562;2022-07-06T05:08:03;1.70;;;1.70;;
27802;SDS011;15182;48.174;11.562;2022-07-06T05:10:36;1.70;;;1.70;;
27802;SDS011;15182;48.174;11.562;2022-07-06T05:13:08;1.80;;;1.70;;
27802;SDS011;15182;48.174;11.562;2022-07-06T05:15:39;1.85;;;1.58;;
27802;SDS011;15182;48.174;11.562;2022-07-06T05:18:10;1.83;;;1.70;;
27802;SDS011;15182;48.174;11.562;2022-07-06T05:20:42;2.75;;;1.80;;
27802;SDS011;15182;48.174;11.562;2022-07-06T05:23:15;1.63;;;1.52;;
27802;SDS011;15182;48.174;11.562;2022-07-06T05:25:47;1.88;;;1.88;;
27802;SDS011;15182;48.174;11.562;2022-07-06T05:28:19;1.70;;;1.60;;
27802;SDS011;15182;48.174;11.562;2022-07-06T05:30:50;6.95;;;2.22;;
27802;SDS011;15182;48.174;11.562;2022-07-06T05:33:22;1.88;;;1.77;;
27802;SDS011;15182;48.174;11.562;2022-07-06T05:35:55;1.70;;;1.60;;
27802;SDS011;15182;48.174;11.562;2022-07-06T05:38:28;1.63;;;1.50;;
27802;SDS011;15182;48.174;11.562;2022-07-06T05:41:01;1.70;;;1.70;;
27802;SDS011;15182;48.174;11.562;2022-07-06T05:43:34;1.70;;;1.70;;
27802;SDS011;15182;48.174;11.562;2022-07-06T05:46:07;1.42;;;1.42;;
27802;SDS011;15182;48.174;11.562;2022-07-06T05:48:41;1.58;;;1.58;;
27802;SDS011;15182;48.174;11.562;2022-07-06T05:51:30;1.75;;;1.65;;
27802;SDS011;15182;48.174;11.562;2022-07-06T05:54:01;1.60;;;1.60;;
27802;SDS011;15182;48.174;11.562;2022-07-06T05:56:34;1.50;;;1.50;;
27802;SDS011;15182;48.174;11.562;2022-07-06T05:59:08;1.95;;;1.73;;
27802;SDS011;15182;48.174;11.562;2022-07-06T06:01:40;2.60;;;1.90;;
27802;SDS011;15182;48.174;11.562;2022-07-06T06:04:18;1.88;;;1.77;;
27802;SDS011;15182;48.174;11.562;2022-07-06T06:06:49;2.03;;;1.67;;
27802;SDS011;15182;48.174;11.562;2022-07-06T06:09:22;1.83;;;1.83;;
27802;SDS011;15182;48.174;11.562;2022-07-06T06:11:56;8.77;;;3.55;;
27802;SDS011;15182;48.174;11.562;2022-07-06T06:14:28;1.88;;;1.88;;
27802;SDS011;15182;48.174;11.562;2022-07-06T06:17:01;1.95;;;1.85;;
27802;SDS011;15182;48.174;11.562;2022-07-06T06:19:35;1.70;;;1.60;;
27802;SDS011;15182;48.174;11.562;2022-07-06T06:22:07;5.45;;;1.90;;
27802;SDS011;15182;48.174;11.562;2022-07-06T06:24:38;1.60;;;1.60;;
27802;SDS011;15182;48.174;11.562;2022-07-06T06:27:12;1.85;;;1.85;;
27802;SDS011;15182;48.174;11.562;2022-07-06T06:29:43;1.67;;;1.58;;
27802;SDS011;15182;48.174;11.562;2022-07-06T06:32:15;1.92;;;1.88;;
27802;SDS011;15182;48.174;11.562;2022-07-06T06:34:46;1.83;;;1.73;;
27802;SDS011;15182;48.174;11.562;2022-07-06T06:37:17;1.88;;;1.80;;
27802;SDS011;15182;48.174;11.562;2022-07-06T06:39:48;1.80;;;1.77;;
27802;SDS011;15182;48.174;11.562;2022-07-06T06:42:21;2.00;;;1.90;;
27802;SDS011;15182;48.174;11.562;2022-07-06T06:44:53;2.05;;;2.05;;
27802;SDS011;15182;48.174;11.562;2022-07-06T06:47:25;1.90;;;1.90;;
27802;SDS011;15182;48.174;11.562;2022-07-06T06:49:57;2.08;;;1.98;;
27802;SDS011;15182;48.174;11.562;2022-07-06T06:52:30;1.77;;;1.77;;
27802;SDS011;15182;48.174;11.562;2022-07-06T06:55:01;2.22;;;1.88;;
27802;SDS011;15182;48.174;11.562;2022-07-06T06:57:35;2.08;;;2.08;;
27802;SDS011;15182;48.174;11.562;2022-07-06T07:00:07;3.35;;;2.00;;
27802;SDS011;15182;48.174;11.562;2022-07-06T07:02:40;1.75;;;1.75;;
27802;SDS011;15182;48.174;11.562;2022-07-06T07:05:13;1.90;;;1.80;;
27802;SDS011;15182;48.174;11.562;2022-07-06T07:07:45;1.92;;;1.92;;
27802;SDS011;15182;48.174;11.562;2022-07-06T07:10:17;2.13;;;2.03;;
27802;SDS011;15182;48.174;11.562;2022-07-06T07:12:50;1.90;;;1.90;;
27802;SDS011;15182;48.174;11.562;2022-07-06T07:15:21;1.92;;;1.92;;
27802;SDS011;15182;48.174;11.562;2022-07-06T07:17:53;2.30;;;2.30;;
27802;SDS011;15182;48.174;11.562;2022-07-06T07:20:24;5.20;;;2.20;;
27802;SDS011;15182;48.174;11.562;2022-07-06T07:22:56;2.15;;;2.15;;
27802;SDS011;15182;48.174;11.562;2022-07-06T07:25:29;1.90;;;1.80;;
27802;SDS011;15182;48.174;11.562;2022-07-06T07:28:02;1.95;;;1.95;;
27802;SDS011;15182;48.174;11.562;2022-07-06T07:30:36;2.15;;;2.13;;
27802;SDS011;15182;48.174;11.562;2022-07-06T07:33:07;4.53;;;2.08;;
27802;SDS011;15182;48.174;11.562;2022-07-06T07:35:40;2.10;;;2.10;;
27802;SDS011;15182;48.174;11.562;2022-07-06T07:38:12;2.20;;;2.20;;
27802;SDS011;15182;48.174;11.562;2022-07-06T07:40:43;2.05;;;1.90;;
27802;SDS011;15182;48.174;11.562;2022-07-06T07:43:16;2.38;;;2.28;;
27802;SDS011;15182;48.174;11.562;2022-07-06T07:45:47;2.30;;;2.20;;
27802;SDS011;15182;48.174;11.562;2022-07-06T07:48:19;2.20;;;2.20;;
27802;SDS011;15182;48.174;11.562;2022-07-06T07:50:50;2.28;;;2.28;;
27802;SDS011;15182;48.174;11.562;2022-07-06T07:53:23;2.30;;;2.30;;
27802;SDS011;15182;48.174;11.562;2022-07-06T07:55:55;2.47;;;2.45;;
27802;SDS011;15182;48.174;11.562;2022-07-06T07:58:27;2.97;;;2.55;;
27802;SDS011;15182;48.174;11.562;2022-07-06T08:00:59;5.32;;;2.15;;
27802;SDS011;15182;48.174;11.562;2022-07-06T08:03:31;2.00;;;2.00;;
27802;SDS011;15182;48.174;11.562;2022-07-06T08:06:02;2.00;;;2.00;;
27802;SDS011;15182;48.174;11.562;2022-07-06T08:08:35;2.38;;;2.38;;
27802;SDS011;15182;48.174;11.562;2022-07-06T08:11:08;4.53;;;2.40;;
27802;SDS011;15182;48.174;11.562;2022-07-06T08:13:41;2.35;;;2.25;;
27802;SDS011;15182;48.174;11.562;2022-07-06T08:16:12;2.83;;;2.72;;
27802;SDS011;15182;48.174;11.562;2022-07-06T08:18:46;2.53;;;2.38;;
27802;SDS011;15182;48.174;11.562;2022-07-06T08:21:17;2.40;;;2.40;;
27802;SDS011;15182;48.174;11.562;2022-07-06T08:23:50;2.70;;;2.60;;
27802;SDS011;15182;48.174;11.562;2022-07-06T08:26:26;2.35;;;2.15;;
27802;SDS011;15182;48.174;11.562;2022-07-06T08:28:58;3.05;;;2.75;;
27802;SDS011;15182;48.174;11.562;2022-07-06T08:31:30;5.18;;;2.60;;
27802;SDS011;15182;48.174;11.562;2022-07-06T08:34:02;2.60;;;2.50;;
27802;SDS011;15182;48.174;11.562;2022-07-06T08:36:33;6.80;;;2.65;;
27802;SDS011;15182;48.174;11.562;2022-07-06T08:39:05;2.38;;;2.33;;
27802;SDS011;15182;48.174;11.562;2022-07-06T08:41:36;2.40;;;2.35;;
27802;SDS011;15182;48.174;11.562;2022-07-06T08:44:14;2.60;;;2.60;;
27802;SDS011;15182;48.174;11.562;2022-07-06T08:46:48;2.42;;;2.42;;
27802;SDS011;15182;48.174;11.562;2022-07-06T08:49:20;2.65;;;2.55;;
27802;SDS011;15182;48.174;11.562;2022-07-06T08:51:55;2.47;;;2.40;;
27802;SDS011;15182;48.174;11.562;2022-07-06T08:54:27;2.40;;;2.40;;
27802;SDS011;15182;48.174;11.562;2022-07-06T08:56:58;2.50;;;2.47;;
27802;SDS011;15182;48.174;11.562;2022-07-06T08:59:32;2.65;;;2.35;;
27802;SDS011;15182;48.174;11.562;2022-07-06T09:02:04;2.40;;;2.40;;
27802;SDS011;15182;48.174;11.562;2022-07-06T09:04:38;3.40;;;2.45;;
27802;SDS011;15182;48.174;11.562;2022-07-06T09:07:11;2.30;;;2.30;;
27802;SDS011;15182;48.174;11.562;2022-07-06T09:09:42;2.55;;;2.42;;
27802;SDS011;15182;48.174;11.562;2022-07-06T09:12:14;3.30;;;2.53;;
27802;SDS011;15182;48.174;11.562;2022-07-06T09:14:47;2.47;;;2.38;;
27802;SDS011;15182;48.174;11.562;2022-07-06T09:17:19;3.10;;;2.85;;
27802;SDS011;15182;48.174;11.562;2022-07-06T09:19:56;6.00;;;2.47;;
27802;SDS011;15182;48.174;11.562;2022-07-06T09:22:28;4.00;;;2.40;;
27802;SDS011;15182;48.174;11.562;2022-07-06T09:25:03;2.83;;;2.72;;
27802;SDS011;15182;48.174;11.562;2022-07-06T09:27:37;2.83;;;2.50;;
27802;SDS011;15182;48.174;11.562;2022-07-06T09:30:14;3.00;;;2.75;;
27802;SDS011;15182;48.174;11.562;2022-07-06T09:32:46;2.63;;;2.53;;
27802;SDS011;15182;48.174;11.562;2022-07-06T09:35:19;2.95;;;2.75;;
27802;SDS011;15182;48.174;11.562;2022-07-06T09:38:02;2.92;;;2.80;;
27802;SDS011;15182;48.174;11.562;2022-07-06T09:40:36;3.45;;;3.17;;
27802;SDS011;15182;48.174;11.562;2022-07-06T09:43:10;2.97;;;2.88;;
27802;SDS011;15182;48.174;11.562;2022-07-06T09:45:45;5.35;;;2.70;;
27802;SDS011;15182;48.174;11.562;2022-07-06T09:48:21;3.97;;;2.67;;
27802;SDS011;15182;48.174;11.562;2022-07-06T09:50:54;2.55;;;2.53;;
27802;SDS011;15182;48.174;11.562;2022-07-06T09:53:28;2.72;;;2.63;;
27802;SDS011;15182;48.174;11.562;2022-07-06T09:56:03;2.63;;;2.53;;
27802;SDS011;15182;48.174;11.562;2022-07-06T09:58:37;2.60;;;2.50;;
27802;SDS011;15182;48.174;11.562;2022-07-06T10:01:10;2.60;;;2.50;;
27802;SDS011;15182;48.174;11.562;2022-07-06T10:03:52;3.05;;;2.83;;
27802;SDS011;15182;48.174;11.562;2022-07-06T10:06:24;2.78;;;2.67;;
27802;SDS011;15182;48.174;11.562;2022-07-06T10:08:55;2.58;;;2.58;;
27802;SDS011;15182;48.174;11.562;2022-07-06T10:11:29;2.60;;;2.50;;
27802;SDS011;15182;48.174;11.562;2022-07-06T10:14:06;2.47;;;2.47;;
27802;SDS011;15182;48.174;11.562;2022-07-06T10:16:41;2.40;;;2.30;;
27802;SDS011;15182;48.174;11.562;2022-07-06T10:19:14;2.92;;;2.53;;
27802;SDS011;15182;48.174;11.562;2022-07-06T10:21:48;5.75;;;2.60;;
27802;SDS011;15182;48.174;11.562;2022-07-06T10:24:20;3.00;;;2.80;;
27802;SDS011;15182;48.174;11.562;2022-07-06T10:26:51;3.83;;;2.85;;
27802;SDS011;15182;48.174;11.562;2022-07-06T10:29:24;2.55;;;2.53;;
27802;SDS011;15182;48.174;11.562;2022-07-06T10:31:58;2.40;;;2.40;;
27802;SDS011;15182;48.174;11.562;2022-07-06T10:34:30;2.55;;;2.42;;
27802;SDS011;15182;48.174;11.562;2022-07-06T10:37:02;2.42;;;2.33;;
27802;SDS011;15182;48.174;11.562;2022-07-06T10:39:34;2.25;;;2.25;;
27802;SDS011;15182;48.174;11.562;2022-07-06T10:42:40;2.20;;;2.20;;
27802;SDS011;15182;48.174;11.562;2022-07-06T10:45:19;2.33;;;2.30;;
27802;SDS011;15182;48.174;11.562;2022-07-06T10:48:18;2.58;;;2.30;;
27802;SDS011;15182;48.174;11.562;2022-07-06T10:50:51;3.55;;;2.47;;
27802;SDS011;15182;48.174;11.562;2022-07-06T10:53:25;2.95;;;2.30;;
27802;SDS011;15182;48.174;11.562;2022-07-06T10:56:01;2.65;;;2.55;;
27802;SDS011;15182;48.174;11.562;2022-07-06T10:58:34;2.35;;;2.30;;
27802;SDS011;15182;48.174;11.562;2022-07-06T11:01:07;2.40;;;2.35;;
27802;SDS011;15182;48.174;11.562;2022-07-06T11:03:41;2.80;;;2.15;;
27802;SDS011;15182;48.174;11.562;2022-07-06T11:06:14;2.45;;;2.30;;
27802;SDS011;15182;48.174;11.562;2022-07-06T11:08:54;2.30;;;2.20;;
27802;SDS011;15182;48.174;11.562;2022-07-06T11:11:37;2.05;;;2.05;;
27802;SDS011;15182;48.174;11.562;2022-07-06T11:14:14;4.30;;;2.20;;
27802;SDS011;15182;48.174;11.562;2022-07-06T11:17:01;2.42;;;2.33;;
27802;SDS011;15182;48.174;11.562;2022-07-06T11:19:34;1.98;;;1.98;;
27802;SDS011;15182;48.174;11.562;2022-07-06T11:22:07;2.60;;;2.40;;
27802;SDS011;15182;48.174;11.562;2022-07-06T11:24:39;2.30;;;2.20;;
27802;SDS011;15182;48.174;11.562;2022-07-06T11:27:11;2.15;;;2.15;;
27802;SDS011;15182;48.174;11.562;2022-07-06T11:29:43;2.35;;;2.08;;
27802;SDS011;15182;48.174;11.562;2022-07-06T11:32:15;2.13;;;2.13;;
27802;SDS011;15182;48.174;11.562;2022-07-06T11:34:58;3.05;;;2.33;;
27802;SDS011;15182;48.174;11.562;2022-07-06T11:37:29;2.35;;;2.15;;
27802;SDS011;15182;48.174;11.562;2022-07-06T11:40:05;2.20;;;2.20;;
27802;SDS011;15182;48.174;11.562;2022-07-06T11:42:39;3.50;;;2.13;;
27802;SDS011;15182;48.174;11.562;2022-07-06T11:45:25;2.53;;;2.20;;
27802;SDS011;15182;48.174;11.562;2022-07-06T11:48:09;2.17;;;2.00;;
27802;SDS011;15182;48.174;11.562;2022-07-06T11:50:43;2.30;;;2.20;;
27802;SDS011;15182;48.174;11.562;2022-07-06T11:53:24;6.28;;;2.65;;
27802;SDS011;15182;48.174;11.562;2022-07-06T11:55:55;8.55;;;2.67;;
27802;SDS011;15182;48.174;11.562;2022-07-06T11:58:34;4.22;;;2.22;;
27802;SDS011;15182;48.174;11.562;2022-07-06T12:01:10;6.30;;;1.75;;
27802;SDS011;15182;48.174;11.562;2022-07-06T12:03:42;2.33;;;2.03;;
27802;SDS011;15182;48.174;11.562;2022-07-06T12:06:18;1.88;;;1.88;;
27802;SDS011;15182;48.174;11.562;2022-07-06T12:08:51;2.03;;;2.03;;
27802;SDS011;15182;48.174;11.562;2022-07-06T12:11:26;2.67;;;1.90;;
27802;SDS011;15182;48.174;11.562;2022-07-06T12:14:00;2.35;;;2.25;;
27802;SDS011;15182;48.174;11.562;2022-07-06T12:16:42;3.95;;;2.08;;
27802;SDS011;15182;48.174;11.562;2022-07-06T12:19:15;3.25;;;1.95;;
27802;SDS011;15182;48.174;11.562;2022-07-06T12:21:48;2.13;;;2.10;;
27802;SDS011;15182;48.174;11.562;2022-07-06T12:24:21;2.10;;;2.10;;
27802;SDS011;15182;48.174;11.562;2022-07-06T12:26:54;3.97;;;2.00;;
27802;SDS011;15182;48.174;11.562;2022-07-06T12:29:35;6.50;;;2.25;;
27802;SDS011;15182;48.174;11.562;2022-07-06T12:32:13;6.72;;;2.00;;
27802;SDS011;15182;48.174;11.562;2022-07-06T12:34:44;5.10;;;2.20;;
27802;SDS011;15182;48.174;11.562;2022-07-06T12:37:24;1.88;;;1.85;;
27802;SDS011;15182;48.174;11.562;2022-07-06T12:39:56;2.13;;;1.98;;
27802;SDS011;15182;48.174;11.562;2022-07-06T12:42:27;2.38;;;1.85;;
27802;SDS011;15182;48.174;11.562;2022-07-06T12:44:58;2.13;;;2.13;;
27802;SDS011;15182;48.174;11.562;2022-07-06T12:47:30;3.20;;;1.90;;
27802;SDS011;15182;48.174;11.562;2022-07-06T12:50:05;2.20;;;2.20;;
27802;SDS011;15182;48.174;11.562;2022-07-06T12:52:40;2.10;;;2.00;;
27802;SDS011;15182;48.174;11.562;2022-07-06T12:55:12;2.38;;;2.28;;
27802;SDS011;15182;48.174;11.562;2022-07-06T12:57:43;1.92;;;1.92;;
27802;SDS011;15182;48.174;11.562;2022-07-06T13:00:17;2.30;;;2.20;;
27802;SDS011;15182;48.174;11.562;2022-07-06T13:02:50;2.00;;;2.00;;
27802;SDS011;15182;48.174;11.562;2022-07-06T13:05:24;2.05;;;2.03;;
27802;SDS011;15182;48.174;11.562;2022-07-06T13:07:58;2.00;;;1.90;;
27802;SDS011;15182;48.174;11.562;2022-07-06T13:10:29;2.42;;;1.88;;
27802;SDS011;15182;48.174;11.562;2022-07-06T13:13:01;1.90;;;1.80;;
27802;SDS011;15182;48.174;11.562;2022-07-06T13:15:36;2.08;;;2.08;;
27802;SDS011;15182;48.174;11.562;2022-07-06T13:18:10;2.10;;;2.10;;
27802;SDS011;15182;48.174;11.562;2022-07-06T13:20:44;2.30;;;2.20;;
27802;SDS011;15182;48.174;11.562;2022-07-06T13:23:17;4.80;;;2.10;;
27802;SDS011;15182;48.174;11.562;2022-07-06T13:25:48;2.20;;;2.10;;
27802;SDS011;15182;48.174;11.562;2022-07-06T13:28:20;2.20;;;2.00;;
27802;SDS011;15182;48.174;11.562;2022-07-06T13:30:51;4.82;;;2.00;;
27802;SDS011;15182;48.174;11.562;2022-07-06T13:33:22;2.03;;;1.95;;
27802;SDS011;15182;48.174;11.562;2022-07-06T13:35:54;1.95;;;1.90;;
27802;SDS011;15182;48.174;11.562;2022-07-06T13:38:27;1.77;;;1.77;;
27802;SDS011;15182;48.174;11.562;2022-07-06T13:40:59;2.00;;;1.80;;
27802;SDS011;15182;48.174;11.562;2022-07-06T13:43:33;1.50;;;1.50;;
27802;SDS011;15182;48.174;11.562;2022-07-06T13:46:05;1.88;;;1.77;;
27802;SDS011;15182;48.174;11.562;2022-07-06T13:48:39;1.45;;;1.45;;
27802;SDS011;15182;48.174;11.562;2022-07-06T13:51:10;4.15;;;1.80;;
27802;SDS011;15182;48.174;11.562;2022-07-06T13:53:43;1.45;;;1.45;;
27802;SDS011;15182;48.174;11.562;2022-07-06T13:56:14;4.68;;;1.95;;
27802;SDS011;15182;48.174;11.562;2022-07-06T13:58:45;1.90;;;1.90;;
27802;SDS011;15182;48.174;11.562;2022-07-06T14:01:17;1.70;;;1.70;;
27802;SDS011;15182;48.174;11.562;2022-07-06T14:03:50;2.58;;;1.90;;
27802;SDS011;15182;48.174;11.562;2022-07-06T14:06:21;1.60;;;1.60;;
27802;SDS011;15182;48.174;11.562;2022-07-06T14:08:54;1.70;;;1.70;;
27802;SDS011;15182;48.174;11.562;2022-07-06T14:11:28;2.25;;;2.15;;
27802;SDS011;15182;48.174;11.562;2022-07-06T14:13:59;2.05;;;1.95;;
27802;SDS011;15182;48.174;11.562;2022-07-06T14:16:32;9.52;;;2.17;;
27802;SDS011;15182;48.174;11.562;2022-07-06T14:19:06;6.82;;;2.00;;
27802;SDS011;15182;48.174;11.562;2022-07-06T14:21:37;2.35;;;1.80;;
27802;SDS011;15182;48.174;11.562;2022-07-06T14:24:10;2.10;;;2.00;;
27802;SDS011;15182;48.174;11.562;2022-07-06T14:26:42;4.95;;;1.90;;
27802;SDS011;15182;48.174;11.562;2022-07-06T14:29:13;2.80;;;1.90;;
27802;SDS011;15182;48.174;11.562;2022-07-06T14:31:44;1.77;;;1.65;;
27802;SDS011;15182;48.174;11.562;2022-07-06T14:34:16;1.85;;;1.77;;
27802;SDS011;15182;48.174;11.562;2022-07-06T14:36:47;3.92;;;1.70;;
27802;SDS011;15182;48.174;11.562;2022-07-06T14:39:20;1.90;;;1.83;;
27802;SDS011;15182;48.174;11.562;2022-07-06T14:41:52;1.90;;;1.90;;
27802;SDS011;15182;48.174;11.562;2022-07-06T14:44:23;2.08;;;1.95;;
27802;SDS011;15182;48.174;11.562;2022-07-06T14:46:55;1.77;;;1.77;;
27802;SDS011;15182;48.174;11.562;2022-07-06T14:49:26;1.75;;;1.75;;
27802;SDS011;15182;48.174;11.562;2022-07-06T14:51:57;1.95;;;1.95;;
27802;SDS011;15182;48.174;11.562;2022-07-06T14:54:30;1.83;;;1.83;;
27802;SDS011;15182;48.174;11.562;2022-07-06T14:57:02;2.03;;;1.92;;
27802;SDS011;15182;48.174;11.562;2022-07-06T14:59:35;1.90;;;1.90;;
27802;SDS011;15182;48.174;11.562;2022-07-06T15:02:06;2.10;;;2.00;;
27802;SDS011;15182;48.174;11.562;2022-07-06T15:04:37;2.00;;;1.90;;